Time;durP1;ratioP1;P1;durP2;ratioP2;P2;SDS_P1;SDS_P2;PMS_P1;PMS_P2;Temp;Humidity;BMP_temperature;BMP_pressure;BME280_temperature;BME280_humidity;BME280_pressure;Samples;Min_cycle;Max_cycle;Signal;HPM_P1;HPM_P2
2022/02/11 00:01:53;;;;;;;6.22;4.90;;;2.90;99.90;;;;;;5055687;28;20186;-78
2022/02/11 00:07:07;;;;;;;5.55;4.50;;;2.90;99.90;;;;;;5055742;28;20291;-79
2022/02/11 00:09:33;;;;;;;6.57;5.88;;;2.90;99.90;;;;;;5054965;28;20217;-79
2022/02/11 00:11:59;;;;;;;10.18;5.13;;;3.00;99.90;;;;;;5054148;28;20638;-79
2022/02/11 00:14:27;;;;;;;5.87;4.90;;;3.00;99.90;;;;;;5055537;28;20189;-79
2022/02/11 00:16:52;;;;;;;7.63;5.10;;;3.00;99.90;;;;;;5055490;28;20178;-79
2022/02/11 00:19:18;;;;;;;5.37;4.87;;;3.00;99.90;;;;;;5054967;28;20202;-79
2022/02/11 00:21:44;;;;;;;7.60;5.70;;;3.00;99.90;;;;;;5055413;28;20243;-80
2022/02/11 00:24:09;;;;;;;10.70;6.23;;;3.00;99.90;;;;;;5055624;28;20645;-79
2022/02/11 00:26:38;;;;;;;8.73;5.90;;;3.00;99.90;;;;;;5055327;28;20178;-79
2022/02/11 00:32:17;;;;;;;8.32;5.50;;;3.00;99.90;;;;;;5055369;28;20185;-79
2022/02/11 00:34:46;;;;;;;6.35;5.55;;;3.10;99.90;;;;;;5055103;28;20185;-79
2022/02/11 00:37:17;;;;;;;9.52;6.47;;;3.10;99.90;;;;;;5055491;28;20182;-80
2022/02/11 01:04:03;;;;;;;10.07;6.70;;;2.80;99.90;;;;;;5054751;28;20188;-80
2022/02/11 01:06:30;;;;;;;5.50;4.90;;;2.90;99.90;;;;;;5054422;28;20172;-80
2022/02/11 01:08:56;;;;;;;8.82;5.85;;;2.90;99.90;;;;;;5054048;28;20619;-80
2022/02/11 01:11:48;;;;;;;11.15;7.80;;;2.80;99.90;;;;;;5054495;28;20184;-79
2022/02/11 01:14:11;;;;;;;10.32;6.80;;;2.80;99.90;;;;;;5054140;28;20639;-80
2022/02/11 01:16:51;;;;;;;9.47;7.37;;;2.70;99.90;;;;;;5054588;28;20178;-80
2022/02/11 01:22:06;;;;;;;11.27;6.03;;;2.60;99.90;;;;;;5054662;28;20187;-79
2022/02/11 01:27:30;;;;;;;17.00;7.45;;;2.40;99.90;;;;;;5054505;28;20286;-80
2022/02/11 01:30:29;;;;;;;9.45;6.43;;;2.50;99.90;;;;;;5052479;28;20307;-80
2022/02/11 01:33:29;;;;;;;12.70;8.27;;;2.50;99.90;;;;;;5054166;28;20173;-80
2022/02/11 01:54:46;;;;;;;13.52;8.10;;;2.30;99.90;;;;;;5049876;28;20578;-80
2022/02/11 02:27:03;;;;;;;21.13;10.98;;;2.30;99.90;;;;;;5053409;28;20276;-80
2022/02/11 02:37:20;;;;;;;20.05;11.23;;;2.20;99.90;;;;;;5053386;28;20265;-80
2022/02/11 02:59:15;;;;;;;30.60;13.40;;;2.20;99.90;;;;;;5051647;28;20224;-81
2022/02/11 03:31:32;;;;;;;24.30;13.63;;;2.30;99.90;;;;;;5053115;28;20187;-81
2022/02/11 04:52:41;;;;;;;27.67;11.30;;;2.70;99.90;;;;;;5030191;28;20208;-80
2022/02/11 04:55:27;;;;;;;13.10;7.30;;;3.00;99.90;;;;;;5054176;28;20584;-80
2022/02/11 05:00:39;;;;;;;18.55;7.13;;;3.00;99.90;;;;;;5054450;28;20699;-82
2022/02/11 05:03:05;;;;;;;18.10;8.50;;;3.20;99.90;;;;;;5054794;28;20220;-81
2022/02/11 05:05:48;;;;;;;16.63;9.00;;;3.10;99.90;;;;;;5054621;28;20264;-81
2022/02/11 05:08:18;;;;;;;19.80;8.80;;;3.00;99.90;;;;;;5054593;28;20257;-82
2022/02/11 05:10:45;;;;;;;25.10;9.15;;;3.10;99.90;;;;;;5052865;28;20221;-81
2022/02/11 05:13:11;;;;;;;21.77;8.52;;;3.10;99.90;;;;;;5054279;28;20178;-81
2022/02/11 05:15:37;;;;;;;15.02;8.70;;;3.10;99.90;;;;;;5053104;28;20243;-81
2022/02/11 05:18:04;;;;;;;17.77;8.67;;;3.20;99.90;;;;;;5054292;28;20177;-81
2022/02/11 05:20:30;;;;;;;19.08;7.70;;;3.20;99.90;;;;;;5053925;28;20436;-81
2022/02/11 05:22:55;;;;;;;15.93;7.53;;;3.20;99.90;;;;;;5054423;28;20185;-81
2022/02/11 05:25:21;;;;;;;16.90;8.33;;;3.20;99.90;;;;;;5054335;28;20216;-82
2022/02/11 05:27:47;;;;;;;13.33;5.70;;;3.20;99.90;;;;;;5054581;28;20261;-82
2022/02/11 05:30:13;;;;;;;18.07;7.83;;;3.30;99.90;;;;;;5053609;28;20209;-81
2022/02/11 05:32:38;;;;;;;15.10;7.67;;;3.30;99.90;;;;;;5053073;28;20174;-82
2022/02/11 05:35:04;;;;;;;13.20;7.60;;;3.20;99.90;;;;;;5054118;28;20424;-82
2022/02/11 05:37:30;;;;;;;17.88;8.00;;;3.30;99.90;;;;;;5054058;28;20181;-82
2022/02/11 05:39:56;;;;;;;15.77;7.60;;;3.30;99.90;;;;;;5052420;28;20212;-81
2022/02/11 05:42:21;;;;;;;17.10;7.50;;;3.30;99.90;;;;;;5053863;28;20240;-82
2022/02/11 05:44:47;;;;;;;11.97;6.73;;;3.30;99.90;;;;;;5036042;28;20180;-82
2022/02/11 05:47:12;;;;;;;18.30;6.70;;;3.30;99.90;;;;;;5053815;28;20185;-82
2022/02/11 05:49:38;;;;;;;22.20;6.50;;;3.30;99.90;;;;;;5053497;28;20213;-81
2022/02/11 05:52:04;;;;;;;17.00;6.80;;;3.30;99.90;;;;;;5053793;28;20170;-82
2022/02/11 05:54:30;;;;;;;12.45;5.57;;;3.30;99.90;;;;;;5053134;28;20201;-82
2022/02/11 05:56:56;;;;;;;16.93;6.70;;;3.40;99.90;;;;;;5053709;28;20211;-82
2022/02/11 05:59:22;;;;;;;15.47;6.60;;;3.50;99.90;;;;;;5052238;28;20676;-82
2022/02/11 06:01:48;;;;;;;16.10;6.43;;;3.50;99.90;;;;;;5053720;28;20419;-82
2022/02/11 06:04:13;;;;;;;10.77;6.00;;;3.50;99.90;;;;;;5052295;28;20234;-82
2022/02/11 06:06:39;;;;;;;14.00;8.00;;;3.50;99.90;;;;;;5052162;28;20185;-82
2022/02/11 06:09:04;;;;;;;16.57;6.07;;;3.60;99.90;;;;;;5052904;28;20348;-81
2022/02/11 06:11:30;;;;;;;16.00;6.83;;;3.60;99.90;;;;;;5053445;28;20181;-81
2022/02/11 06:13:56;;;;;;;14.83;6.77;;;3.50;99.90;;;;;;5052267;28;20247;-83
2022/02/11 06:16:22;;;;;;;13.55;6.95;;;3.60;99.90;;;;;;5053205;28;20181;-82
2022/02/11 06:18:48;;;;;;;19.37;7.17;;;3.60;99.90;;;;;;5052826;28;20636;-81
2022/02/11 06:21:14;;;;;;;14.35;7.65;;;3.60;99.90;;;;;;5052235;28;20435;-82
2022/02/11 06:23:40;;;;;;;12.93;6.43;;;3.60;99.90;;;;;;5053253;28;20185;-80
2022/02/11 06:26:06;;;;;;;13.30;6.60;;;3.60;99.90;;;;;;5053477;28;20423;-82
2022/02/11 06:28:31;;;;;;;13.13;6.60;;;3.70;99.90;;;;;;5051619;28;20319;-81
2022/02/11 06:30:57;;;;;;;10.80;4.93;;;3.70;99.90;;;;;;5052679;28;20221;-80
2022/02/11 06:33:22;;;;;;;14.37;6.83;;;3.80;99.90;;;;;;5053130;28;20175;-82
2022/02/11 06:35:48;;;;;;;18.90;6.67;;;3.80;99.90;;;;;;5053138;28;20228;-81
2022/02/11 06:38:14;;;;;;;8.03;5.53;;;3.80;99.90;;;;;;5053273;28;20315;-82
2022/02/11 06:40:40;;;;;;;9.27;5.70;;;3.90;99.90;;;;;;5052828;28;20940;-82
2022/02/11 06:43:08;;;;;;;11.90;5.73;;;3.90;99.90;;;;;;5053248;28;20417;-82
2022/02/11 06:45:34;;;;;;;8.40;4.82;;;4.00;99.90;;;;;;5053227;28;20253;-81
2022/02/11 06:48:00;;;;;;;14.60;5.87;;;3.90;99.90;;;;;;5053140;28;20212;-82
2022/02/11 06:50:26;;;;;;;13.20;6.03;;;3.90;99.90;;;;;;5052435;28;20602;-82
2022/02/11 06:52:55;;;;;;;15.37;5.40;;;3.90;99.90;;;;;;5052950;28;20212;-81
2022/02/11 06:55:24;;;;;;;10.48;5.05;;;3.90;99.90;;;;;;5051590;28;20205;-82
2022/02/11 06:57:50;;;;;;;11.25;4.70;;;3.90;99.90;;;;;;5051818;28;20174;-81
2022/02/11 07:00:17;;;;;;;7.40;4.05;;;4.00;99.90;;;;;;5052522;28;20352;-82
2022/02/11 07:02:43;;;;;;;17.13;4.95;;;4.00;99.90;;;;;;5052985;28;20179;-81
2022/02/11 07:05:10;;;;;;;22.73;5.80;;;4.00;99.90;;;;;;5053859;28;20189;-81
2022/02/11 07:07:36;;;;;;;16.60;4.70;;;4.10;99.90;;;;;;5055884;28;20417;-81
2022/02/11 07:10:02;;;;;;;14.02;5.28;;;4.00;99.90;;;;;;5056325;28;20209;-81
2022/02/11 07:12:28;;;;;;;15.65;3.90;;;4.10;99.90;;;;;;5056907;28;20171;-82
2022/02/11 07:14:53;;;;;;;4.60;2.20;;;4.20;99.90;;;;;;5055422;28;20556;-81
2022/02/11 07:17:19;;;;;;;12.80;4.20;;;4.30;99.90;;;;;;5039285;28;20427;-81
2022/02/11 07:19:44;;;;;;;15.13;4.20;;;4.30;99.90;;;;;;5056327;28;20601;-81
2022/02/11 07:22:10;;;;;;;12.80;4.20;;;4.40;99.90;;;;;;5055350;28;20178;-81
2022/02/11 07:24:36;;;;;;;32.83;7.43;;;4.40;99.90;;;;;;5055272;28;20280;-81
2022/02/11 07:27:02;;;;;;;13.17;3.50;;;4.40;99.90;;;;;;5055122;28;20802;-81
2022/02/11 07:29:27;;;;;;;15.40;4.40;;;4.40;99.90;;;;;;5056162;28;20693;-81
2022/02/11 07:31:53;;;;;;;9.90;3.87;;;4.40;99.90;;;;;;5055302;28;20245;-81
2022/02/11 07:34:18;;;;;;;11.13;3.20;;;4.50;99.90;;;;;;5055287;28;20170;-81
2022/02/11 07:36:44;;;;;;;6.47;2.47;;;4.40;99.90;;;;;;5056473;28;20197;-81
2022/02/11 07:39:10;;;;;;;8.67;3.53;;;4.40;99.90;;;;;;5054761;28;20209;-81
2022/02/11 07:41:36;;;;;;;18.58;3.40;;;4.50;99.90;;;;;;5055048;28;20175;-81
2022/02/11 07:44:02;;;;;;;9.43;3.57;;;4.60;99.90;;;;;;5056251;28;20539;-82
2022/02/11 07:46:28;;;;;;;8.15;4.68;;;4.50;99.90;;;;;;5056181;28;20181;-81
2022/02/11 07:48:55;;;;;;;10.45;3.00;;;4.50;99.90;;;;;;5055826;28;20178;-81
2022/02/11 07:51:22;;;;;;;9.77;2.85;;;4.50;99.90;;;;;;5055836;28;20210;-81
2022/02/11 07:53:47;;;;;;;12.80;4.15;;;4.40;99.90;;;;;;5056234;28;20170;-81
2022/02/11 07:56:14;;;;;;;13.73;4.37;;;4.50;99.90;;;;;;5055938;28;20174;-81
2022/02/11 07:58:40;;;;;;;16.75;4.80;;;4.40;99.90;;;;;;5054627;28;20186;-81
2022/02/11 08:01:09;;;;;;;9.82;3.17;;;4.50;99.90;;;;;;5055930;28;20194;-81
2022/02/11 08:03:34;;;;;;;19.40;3.97;;;4.60;99.90;;;;;;5054396;28;20620;-81
2022/02/11 08:06:00;;;;;;;10.50;3.10;;;4.50;99.90;;;;;;5055830;28;20211;-81
2022/02/11 08:08:31;;;;;;;13.10;4.30;;;4.40;99.90;;;;;;5054311;28;20570;-80
2022/02/11 08:10:57;;;;;;;7.75;3.45;;;4.40;99.90;;;;;;5055237;28;20224;-80
2022/02/11 08:13:23;;;;;;;20.67;4.47;;;4.40;99.90;;;;;;5055620;28;20178;-80
2022/02/11 08:15:49;;;;;;;10.98;3.85;;;4.40;99.90;;;;;;5054558;28;20182;-80
2022/02/11 08:18:15;;;;;;;14.40;3.77;;;4.40;99.90;;;;;;5055512;28;20284;-80
2022/02/11 08:20:40;;;;;;;13.43;3.40;;;4.50;99.90;;;;;;5055113;28;20666;-79
2022/02/11 08:23:06;;;;;;;7.37;3.70;;;4.40;99.90;;;;;;5055461;28;20182;-80
2022/02/11 08:25:34;;;;;;;12.07;3.90;;;4.20;99.90;;;;;;5055357;28;20174;-80
2022/02/11 08:28:00;;;;;;;10.70;3.60;;;4.10;99.90;;;;;;5055302;28;20186;-79
2022/02/11 08:30:26;;;;;;;9.10;3.95;;;3.90;99.90;;;;;;5054893;28;20347;-80
2022/02/11 08:32:52;;;;;;;11.05;3.58;;;3.90;99.90;;;;;;5055370;28;20209;-80
2022/02/11 08:35:17;;;;;;;15.83;4.30;;;4.10;99.90;;;;;;5055201;28;20261;-79
2022/02/11 08:37:43;;;;;;;30.13;5.20;;;4.20;99.90;;;;;;5054988;28;20178;-80
2022/02/11 08:40:10;;;;;;;13.43;4.37;;;4.30;99.90;;;;;;5054729;28;20210;-79
2022/02/11 08:42:35;;;;;;;16.80;5.25;;;4.40;99.90;;;;;;5053751;28;20206;-79
2022/02/11 08:45:02;;;;;;;17.57;3.47;;;4.50;99.90;;;;;;5055223;28;20643;-80
2022/02/11 08:47:28;;;;;;;10.75;3.63;;;4.50;99.90;;;;;;5037495;28;20243;-80
2022/02/11 08:49:54;;;;;;;14.30;3.97;;;4.50;99.90;;;;;;5054387;28;20206;-80
2022/02/11 08:52:25;;;;;;;13.03;3.30;;;4.40;99.90;;;;;;5055049;28;20450;-80
2022/02/11 08:54:51;;;;;;;16.77;3.72;;;4.50;99.90;;;;;;5055089;28;20174;-79
2022/02/11 08:57:17;;;;;;;15.35;4.18;;;4.60;99.90;;;;;;5054890;28;20179;-80
2022/02/11 08:59:42;;;;;;;18.33;3.97;;;4.60;99.90;;;;;;5052914;28;20205;-80
2022/02/11 09:02:11;;;;;;;22.30;3.10;;;4.70;99.90;;;;;;5053555;28;20189;-80
2022/02/11 09:04:39;;;;;;;20.30;5.82;;;4.80;99.90;;;;;;5054723;28;20178;-79
2022/02/11 09:07:05;;;;;;;12.68;3.78;;;4.80;99.90;;;;;;5054506;28;20185;-80
2022/02/11 09:09:31;;;;;;;12.23;3.07;;;4.80;99.90;;;;;;5054051;28;20210;-80
2022/02/11 09:11:57;;;;;;;8.13;3.07;;;4.80;99.90;;;;;;5054537;28;20417;-80
2022/02/11 09:14:22;;;;;;;15.40;4.00;;;4.80;99.90;;;;;;5054351;28;20243;-80
2022/02/11 09:16:48;;;;;;;13.00;4.27;;;4.80;99.90;;;;;;5054495;28;20182;-80
2022/02/11 09:19:13;;;;;;;13.83;3.03;;;5.00;99.90;;;;;;5052829;28;20204;-80
2022/02/11 09:21:39;;;;;;;12.63;4.17;;;5.00;99.90;;;;;;5054368;28;20185;-80
2022/02/11 09:24:05;;;;;;;11.67;4.27;;;5.10;99.90;;;;;;5054098;28;20189;-80
2022/02/11 09:26:31;;;;;;;6.87;2.53;;;5.10;99.90;;;;;;5054257;28;20174;-81
2022/02/11 09:28:56;;;;;;;11.90;3.30;;;5.00;99.90;;;;;;5053699;28;20408;-80
2022/02/11 09:31:27;;;;;;;18.33;5.13;;;5.10;99.90;;;;;;5054081;28;20678;-80
2022/02/11 09:34:03;;;;;;;19.92;3.92;;;5.10;99.90;;;;;;5053017;28;20182;-80
2022/02/11 09:36:35;;;;;;;16.77;3.67;;;5.10;99.90;;;;;;5052952;28;20162;-80
2022/02/11 09:39:06;;;;;;;9.20;3.00;;;5.20;99.90;;;;;;5052641;28;20295;-79
2022/02/11 09:41:35;;;;;;;12.27;3.40;;;5.30;99.90;;;;;;5054113;28;20646;-80
2022/02/11 09:44:02;;;;;;;12.35;2.30;;;5.30;99.90;;;;;;5052681;28;20206;-80
2022/02/11 09:46:33;;;;;;;12.63;2.75;;;5.40;99.90;;;;;;5053860;28;20201;-80
2022/02/11 09:48:59;;;;;;;14.57;2.63;;;5.50;99.90;;;;;;5052148;28;20186;-81
2022/02/11 09:51:25;;;;;;;7.78;2.92;;;5.60;99.90;;;;;;5053612;28;20218;-80
2022/02/11 09:53:51;;;;;;;11.02;3.83;;;5.50;99.90;;;;;;5053954;28;20587;-80
2022/02/11 09:56:18;;;;;;;5.27;1.83;;;5.70;99.90;;;;;;5052563;28;20185;-81
2022/02/11 09:58:49;;;;;;;4.90;2.40;;;5.70;99.90;;;;;;5053451;28;20411;-81
2022/02/11 10:01:15;;;;;;;9.68;2.35;;;6.00;99.90;;;;;;5053907;28;20582;-81
2022/02/11 10:03:40;;;;;;;12.73;2.05;;;6.00;99.90;;;;;;5053786;28;20211;-81
2022/02/11 10:06:07;;;;;;;9.73;2.50;;;5.80;99.90;;;;;;5053705;28;20264;-80
2022/02/11 10:08:35;;;;;;;14.00;2.33;;;5.80;99.90;;;;;;5052073;28;20193;-80
2022/02/11 10:11:02;;;;;;;13.60;2.35;;;5.70;99.90;;;;;;5053341;28;20213;-81
2022/02/11 10:13:40;;;;;;;10.00;2.55;;;5.50;99.90;;;;;;5053538;28;20304;-81
2022/02/11 10:16:11;;;;;;;10.82;2.17;;;5.30;99.90;;;;;;5053376;28;20154;-81
2022/02/11 10:18:42;;;;;;;10.93;2.47;;;5.20;99.90;;;;;;5052841;28;20170;-80
2022/02/11 10:21:15;;;;;;;8.55;2.13;;;5.40;99.90;;;;;;5053572;28;20535;-81
2022/02/11 10:23:43;;;;;;;10.48;2.13;;;5.50;99.90;;;;;;5053217;28;20201;-81
2022/02/11 10:26:13;;;;;;;6.13;2.70;;;5.80;99.90;;;;;;5051838;28;20246;-79
2022/02/11 10:28:40;;;;;;;3.47;1.75;;;6.20;99.90;;;;;;5052597;28;20181;-80
2022/02/11 10:31:12;;;;;;;9.48;2.20;;;6.20;99.90;;;;;;5052909;28;20208;-79
2022/02/11 10:33:56;;;;;;;13.05;2.78;;;6.20;99.90;;;;;;5053069;28;20170;-80
2022/02/11 10:36:28;;;;;;;15.75;2.45;;;6.20;99.90;;;;;;5053102;28;20166;-79
2022/02/11 10:39:05;;;;;;;12.75;2.08;;;6.40;99.90;;;;;;5052092;28;20200;-80
2022/02/11 10:41:32;;;;;;;4.80;1.17;;;6.30;99.90;;;;;;5053003;28;20648;-80
2022/02/11 10:44:09;;;;;;;12.60;2.00;;;6.30;99.90;;;;;;5052989;28;20182;-80
2022/02/11 10:46:37;;;;;;;8.20;1.90;;;6.30;99.90;;;;;;5053032;28;20252;-80
2022/02/11 10:49:03;;;;;;;17.02;2.20;;;6.70;99.90;;;;;;5052527;28;20182;-80
2022/02/11 10:51:29;;;;;;;18.30;2.47;;;6.80;99.90;;;;;;5053091;28;20569;-80
2022/02/11 10:53:55;;;;;;;11.27;2.40;;;6.60;99.90;;;;;;5052996;28;20178;-81
2022/02/11 10:56:22;;;;;;;8.73;2.00;;;6.80;99.90;;;;;;5053052;28;20178;-81
2022/02/11 10:58:56;;;;;;;4.30;1.80;;;6.80;99.90;;;;;;5052546;28;20420;-80
2022/02/11 11:01:24;;;;;;;5.65;1.70;;;6.50;99.90;;;;;;5053019;28;20173;-80
2022/02/11 11:03:50;;;;;;;8.63;2.22;;;6.70;99.90;;;;;;5052830;28;20218;-80
2022/02/11 11:06:18;;;;;;;7.90;2.00;;;6.80;99.90;;;;;;5052792;28;20247;-80
2022/02/11 11:08:46;;;;;;;11.65;2.47;;;6.80;99.90;;;;;;5051278;28;20176;-81
2022/02/11 11:11:12;;;;;;;5.22;1.85;;;7.00;99.90;;;;;;5052562;28;20206;-82
2022/02/11 11:13:39;;;;;;;10.75;2.90;;;7.00;99.90;;;;;;5052878;28;20179;-79
2022/02/11 11:16:07;;;;;;;10.00;2.55;;;7.10;99.90;;;;;;5052855;28;20194;-80
2022/02/11 11:18:39;;;;;;;13.68;3.00;;;7.30;99.90;;;;;;5052547;28;20584;-80
2022/02/11 11:21:10;;;;;;;7.35;1.67;;;7.20;99.90;;;;;;5052483;28;20583;-81
2022/02/11 11:23:37;;;;;;;7.38;2.15;;;7.20;99.90;;;;;;5052803;28;20220;-79
2022/02/11 11:26:10;;;;;;;12.70;2.53;;;7.20;99.90;;;;;;5051473;28;20174;-81
2022/02/11 11:28:42;;;;;;;10.27;2.30;;;7.40;99.90;;;;;;5052274;28;20178;-80
2022/02/11 11:31:23;;;;;;;15.02;2.45;;;7.30;99.90;;;;;;5052500;28;20613;-82
2022/02/11 11:33:49;;;;;;;10.55;3.13;;;6.80;99.90;;;;;;5052565;28;20662;-82
2022/02/11 11:36:17;;;;;;;14.02;2.85;;;6.90;99.90;;;;;;5052490;28;20183;-78
2022/02/11 11:38:56;;;;;;;13.45;2.90;;;6.70;99.90;;;;;;5052103;28;20185;-82
2022/02/11 11:41:27;;;;;;;15.55;3.03;;;6.60;99.90;;;;;;5048020;28;20165;-81
2022/02/11 11:43:58;;;;;;;12.65;2.05;;;6.60;99.90;;;;;;5032737;28;20197;-81
2022/02/11 11:46:25;;;;;;;13.43;2.45;;;6.50;99.90;;;;;;5032790;28;20199;-81
2022/02/11 11:48:53;;;;;;;14.30;2.60;;;6.40;99.90;;;;;;5032360;28;20175;-81
2022/02/11 11:51:20;;;;;;;10.43;2.50;;;6.60;99.90;;;;;;5033213;28;20550;-81
2022/02/11 11:53:46;;;;;;;8.77;2.55;;;6.80;99.90;;;;;;5036082;28;20179;-81
2022/02/11 11:56:34;;;;;;;16.25;3.22;;;6.80;99.90;;;;;;5036108;28;20170;-80
2022/02/11 11:59:28;;;;;;;18.38;3.13;;;6.70;99.90;;;;;;5034459;28;20175;-81
2022/02/11 12:02:10;;;;;;;8.82;2.00;;;6.60;99.90;;;;;;5034806;28;20178;-80
2022/02/11 12:04:41;;;;;;;12.10;2.80;;;6.40;99.90;;;;;;5035860;28;20181;-83
2022/02/11 12:07:20;;;;;;;7.22;2.90;;;6.40;99.90;;;;;;5035983;28;20529;-81
2022/02/11 12:09:48;;;;;;;8.73;1.92;;;6.50;99.90;;;;;;5035361;28;20208;-83
2022/02/11 12:12:18;;;;;;;8.48;1.83;;;6.50;99.90;;;;;;5035626;28;20186;-81
2022/02/11 12:14:45;;;;;;;11.25;2.80;;;6.40;99.90;;;;;;5035769;28;20233;-80
2022/02/11 12:17:13;;;;;;;11.43;2.92;;;6.20;99.90;;;;;;5034459;28;20188;-83
2022/02/11 12:19:41;;;;;;;10.05;2.83;;;6.30;99.90;;;;;;5033874;28;20210;-80
2022/02/11 12:22:07;;;;;;;12.93;2.70;;;6.10;99.90;;;;;;5034327;28;20191;-80
2022/02/11 12:27:31;;;;;;;8.45;2.40;;;6.30;99.90;;;;;;5035545;28;20195;-83
2022/02/11 12:29:58;;;;;;;8.55;2.15;;;6.60;99.90;;;;;;5033920;28;20641;-80
2022/02/11 12:32:43;;;;;;;12.40;3.30;;;6.70;99.90;;;;;;5035323;28;20633;-84
2022/02/11 12:35:38;;;;;;;9.68;2.20;;;7.10;99.90;;;;;;5034015;28;20185;-80
2022/02/11 12:38:04;;;;;;;9.50;2.72;;;7.30;99.90;;;;;;5017697;28;20221;-81
2022/02/11 12:40:36;;;;;;;6.25;1.90;;;7.20;99.90;;;;;;5034840;28;20216;-79
2022/02/11 12:43:06;;;;;;;12.55;3.00;;;6.80;99.90;;;;;;5035374;28;20179;-83
2022/02/11 12:45:41;;;;;;;7.40;2.38;;;5.90;99.90;;;;;;5034986;28;20276;-79
2022/02/11 12:48:10;;;;;;;13.18;2.38;;;5.40;99.90;;;;;;5033736;28;20547;-79
2022/02/11 12:50:41;;;;;;;11.15;3.00;;;5.30;99.90;;;;;;5034629;28;20589;-81
2022/02/11 12:53:13;;;;;;;10.85;2.17;;;5.20;99.90;;;;;;5052262;28;20174;-82
2022/02/11 12:55:41;;;;;;;6.68;2.17;;;5.30;99.90;;;;;;5056983;28;20250;-80
2022/02/11 12:58:09;;;;;;;10.00;3.13;;;5.30;99.90;;;;;;5055062;28;20196;-80
2022/02/11 13:00:37;;;;;;;6.32;2.20;;;5.30;99.90;;;;;;5054300;28;20642;-83
2022/02/11 13:03:04;;;;;;;11.13;3.35;;;5.30;99.90;;;;;;5054364;28;20613;-81
2022/02/11 13:05:39;;;;;;;15.32;3.20;;;5.30;99.90;;;;;;5054572;28;20538;-80
2022/02/11 13:08:08;;;;;;;10.32;2.70;;;5.60;99.90;;;;;;5054536;28;20180;-78
2022/02/11 13:10:34;;;;;;;7.55;1.55;;;5.90;99.90;;;;;;5052881;28;20309;-80
2022/02/11 13:13:13;;;;;;;15.43;2.88;;;5.90;99.90;;;;;;5054562;28;20170;-83
2022/02/11 13:15:38;;;;;;;15.20;3.90;;;6.00;99.90;;;;;;5053339;28;20261;-80
2022/02/11 13:18:12;;;;;;;9.43;1.90;;;6.10;99.90;;;;;;5054471;28;20260;-82
2022/02/11 13:20:43;;;;;;;19.10;2.38;;;6.10;99.90;;;;;;5054298;28;20237;-82
2022/02/11 13:23:14;;;;;;;9.25;2.40;;;6.20;99.90;;;;;;5053084;28;20274;-83
2022/02/11 13:25:43;;;;;;;9.93;1.90;;;6.20;99.90;;;;;;5054304;28;20520;-80
2022/02/11 13:28:13;;;;;;;10.40;2.22;;;6.20;99.90;;;;;;5054293;28;20178;-83
2022/02/11 13:30:45;;;;;;;14.68;2.20;;;6.10;99.90;;;;;;5053798;28;20202;-80
2022/02/11 13:33:21;;;;;;;8.02;2.35;;;6.20;99.90;;;;;;5054331;28;20181;-83
2022/02/11 13:35:47;;;;;;;11.90;3.03;;;6.20;99.90;;;;;;5054105;28;20158;-82
2022/02/11 13:38:24;;;;;;;10.63;2.10;;;6.30;99.90;;;;;;5053999;28;20178;-80
2022/02/11 13:40:55;;;;;;;7.95;2.38;;;6.30;99.90;;;;;;5053478;28;20197;-83
2022/02/11 13:43:21;;;;;;;8.88;2.33;;;6.30;99.90;;;;;;5054288;28;20668;-83
2022/02/11 13:46:00;;;;;;;12.03;3.00;;;6.10;99.90;;;;;;5054147;28;20262;-81
2022/02/11 13:48:31;;;;;;;12.82;2.15;;;6.20;99.90;;;;;;5052725;28;20549;-81
2022/02/11 13:51:12;;;;;;;11.18;2.33;;;6.30;99.90;;;;;;5053583;28;20206;-80
2022/02/11 13:53:48;;;;;;;8.02;3.50;;;6.40;99.90;;;;;;5053925;28;20253;-82
2022/02/11 13:56:19;;;;;;;9.23;2.08;;;6.50;99.90;;;;;;5053600;28;20634;-79
2022/02/11 13:59:27;;;;;;;10.10;2.05;;;6.90;99.90;;;;;;5053362;28;20486;-81
2022/02/11 14:02:03;;;;;;;10.05;2.40;;;7.40;99.90;;;;;;4972779;28;20204;-81
2022/02/11 14:04:32;;;;;;;18.75;2.55;;;7.50;99.90;;;;;;5046384;28;20197;-81
2022/02/11 14:06:58;;;;;;;11.13;2.35;;;7.30;99.90;;;;;;5053529;28;20185;-81
2022/02/11 14:09:35;;;;;;;7.72;2.22;;;7.00;99.90;;;;;;5049301;28;20613;-82
2022/02/11 14:12:01;;;;;;;10.57;2.35;;;6.80;99.90;;;;;;5043746;28;20165;-80
2022/02/11 14:14:29;;;;;;;9.75;2.88;;;6.70;99.90;;;;;;5037120;28;20183;-81
2022/02/11 14:16:58;;;;;;;7.63;2.60;;;6.40;99.90;;;;;;5032350;28;20699;-81
2022/02/11 14:19:24;;;;;;;5.38;1.88;;;6.30;99.90;;;;;;5032965;28;20191;-81
2022/02/11 14:21:55;;;;;;;18.42;2.58;;;6.20;99.90;;;;;;5033211;28;20194;-81
2022/02/11 14:24:21;;;;;;;4.88;2.30;;;6.10;99.90;;;;;;5032953;28;20170;-79
2022/02/11 14:26:48;;;;;;;10.82;2.33;;;6.10;99.90;;;;;;5033392;28;20175;-81
2022/02/11 14:29:15;;;;;;;9.05;2.38;;;6.00;99.90;;;;;;5032628;28;20206;-81
2022/02/11 14:31:41;;;;;;;8.02;2.00;;;6.30;99.90;;;;;;5033228;28;20306;-81
2022/02/11 14:34:11;;;;;;;6.80;1.30;;;6.70;99.90;;;;;;5033202;28;20174;-81
2022/02/11 14:36:38;;;;;;;9.85;1.70;;;7.10;99.90;;;;;;5033064;28;20171;-79
2022/02/11 14:39:07;;;;;;;5.03;1.40;;;7.30;99.90;;;;;;5032851;28;20205;-79
2022/02/11 14:41:49;;;;;;;5.57;2.38;;;7.60;99.90;;;;;;5031853;28;20206;-81
2022/02/11 14:44:16;;;;;;;12.02;1.85;;;7.80;99.90;;;;;;5033333;28;20214;-81
2022/02/11 14:46:42;;;;;;;6.50;1.60;;;7.80;99.90;;;;;;5033209;28;20182;-79
2022/02/11 14:49:10;;;;;;;6.13;2.10;;;7.80;99.90;;;;;;5032685;28;20203;-81
2022/02/11 14:51:39;;;;;;;8.48;2.15;;;7.50;99.90;;;;;;5032965;28;20453;-79
2022/02/11 14:54:08;;;;;;;7.35;2.13;;;7.40;99.90;;;;;;5033334;28;20638;-80
2022/02/11 14:56:38;;;;;;;13.70;2.53;;;7.30;99.90;;;;;;5031602;28;20275;-81
2022/02/11 14:59:06;;;;;;;10.88;2.63;;;7.70;99.90;;;;;;5032985;28;20257;-82
2022/02/11 15:01:32;;;;;;;7.85;1.63;;;7.90;99.90;;;;;;5033154;28;20232;-80
2022/02/11 15:03:58;;;;;;;9.70;1.93;;;8.10;99.90;;;;;;5032968;28;20188;-79
2022/02/11 15:06:24;;;;;;;13.15;2.78;;;8.50;99.90;;;;;;5032885;28;20213;-78
2022/02/11 15:08:50;;;;;;;6.90;2.07;;;8.50;99.90;;;;;;5032611;28;20210;-82
2022/02/11 15:11:17;;;;;;;7.10;1.80;;;8.40;99.90;;;;;;5032696;28;21000;-80
2022/02/11 15:13:44;;;;;;;5.72;1.55;;;8.30;99.90;;;;;;5032991;28;20185;-82
2022/02/11 15:16:10;;;;;;;8.27;1.80;;;8.10;99.90;;;;;;5032897;28;20177;-83
2022/02/11 15:18:36;;;;;;;9.10;2.60;;;8.00;99.90;;;;;;5032418;28;20265;-80
2022/02/11 15:21:06;;;;;;;11.70;2.00;;;8.10;99.90;;;;;;5032486;28;20241;-82
2022/02/11 15:23:36;;;;;;;5.13;1.60;;;7.80;99.90;;;;;;5032794;28;20598;-81
2022/02/11 15:26:04;;;;;;;4.50;1.73;;;7.70;99.90;;;;;;5034668;28;20225;-82
2022/02/11 15:28:30;;;;;;;2.38;1.13;;;7.60;99.90;;;;;;5035101;28;20185;-80
2022/02/11 15:30:56;;;;;;;5.70;1.75;;;7.30;99.90;;;;;;5035963;28;20725;-82
2022/02/11 15:33:22;;;;;;;8.27;1.77;;;7.10;99.90;;;;;;5036475;28;20241;-81
2022/02/11 15:35:48;;;;;;;7.22;1.60;;;6.90;99.90;;;;;;5036445;28;20557;-83
2022/02/11 15:38:14;;;;;;;9.33;1.63;;;6.90;99.90;;;;;;5036262;28;20179;-80
2022/02/11 15:40:39;;;;;;;9.07;1.70;;;6.80;99.90;;;;;;5035823;28;20578;-81
2022/02/11 15:43:05;;;;;;;4.67;1.57;;;6.90;99.90;;;;;;5036163;28;20185;-83
2022/02/11 15:45:31;;;;;;;9.90;1.60;;;6.90;99.90;;;;;;5036327;28;20176;-80
2022/02/11 15:47:57;;;;;;;5.70;1.70;;;7.00;99.90;;;;;;5036357;28;20465;-83
2022/02/11 15:50:23;;;;;;;8.57;2.00;;;7.10;99.90;;;;;;5035950;28;20214;-82
2022/02/11 15:52:49;;;;;;;3.80;1.97;;;7.00;99.90;;;;;;5034730;28;21005;-83
2022/02/11 15:55:15;;;;;;;9.48;2.17;;;7.20;99.90;;;;;;5036090;28;20458;-84
2022/02/11 15:57:42;;;;;;;5.20;1.70;;;7.00;99.90;;;;;;5036043;28;20167;-82
2022/02/11 16:00:08;;;;;;;9.70;2.00;;;6.90;99.90;;;;;;5035770;28;20302;-80
2022/02/11 16:02:34;;;;;;;5.45;1.80;;;6.80;99.90;;;;;;5036127;28;20656;-81
2022/02/11 16:05:00;;;;;;;7.50;1.67;;;6.70;99.90;;;;;;5034742;28;20198;-81
2022/02/11 16:07:27;;;;;;;11.20;1.73;;;6.60;99.90;;;;;;5036030;28;20179;-86
2022/02/11 16:09:54;;;;;;;4.60;1.90;;;6.60;99.90;;;;;;5033926;28;20222;-83
2022/02/11 16:12:20;;;;;;;7.65;1.95;;;6.50;99.90;;;;;;5035474;28;20178;-83
2022/02/11 16:14:45;;;;;;;13.90;2.20;;;6.40;99.90;;;;;;5034677;28;20561;-83
2022/02/11 16:17:11;;;;;;;6.27;1.90;;;6.30;99.90;;;;;;5035452;28;20490;-80
2022/02/11 16:19:37;;;;;;;10.37;2.37;;;6.30;99.90;;;;;;5035390;28;20195;-83
2022/02/11 16:22:04;;;;;;;5.13;1.65;;;6.20;99.90;;;;;;5034458;28;20733;-82
2022/02/11 16:24:30;;;;;;;11.43;2.08;;;6.00;99.90;;;;;;5035824;28;20554;-83
2022/02/11 16:26:56;;;;;;;10.48;3.08;;;6.00;99.90;;;;;;5035323;28;20181;-81
2022/02/11 16:29:22;;;;;;;8.10;2.00;;;6.00;99.90;;;;;;5034759;28;20210;-83
2022/02/11 16:31:49;;;;;;;8.30;2.33;;;6.00;99.90;;;;;;5035407;28;20175;-82
2022/02/11 16:34:17;;;;;;;2.85;1.60;;;6.00;99.90;;;;;;5035522;28;20421;-81
2022/02/11 16:36:43;;;;;;;5.22;2.35;;;5.90;99.90;;;;;;5034974;28;20596;-82
2022/02/11 16:39:09;;;;;;;9.07;3.10;;;5.90;99.90;;;;;;5034903;28;20245;-81
2022/02/11 16:41:35;;;;;;;5.28;2.05;;;5.90;99.90;;;;;;5035090;28;20659;-81
2022/02/11 16:44:01;;;;;;;11.27;3.50;;;6.00;99.90;;;;;;5035340;28;20266;-83